Latest Weather Observations for Longreach

IDQ60801

Issued at 12:32 pm EST Friday 28 July 2017 (issued every 30 minutes, with the page automatically refreshed every 10 minutes)

About weather observations | Map of weather stations | Latest weather observations for QLD | Other Formats
Station Details ID: 036031 Name: LONGREACH AERO Lat: -23.44 Lon: 144.28 Height: 192.2 m
Data from the previous 72 hours. | See also: Recent months at Longreach
Date/Time
EST
Temp
°C
App
Temp
°C
Dew
Point
°C
Rel
Hum
%
Delta-T
°C
Wind Press
QNH
hPa
Press
MSL
hPa
Rain since
9am
mm
Dir  Spd
km/h
Gust
km/h
Spd
kts
Gust
kts
28/12:30pm 25.5 21.9 0.9 20 11.6 ENE 9 17 5 9 1022.8 1022.6 0.0
28/12:00pm 24.8 20.8 0.3 20 11.4 NNW 11 19 6 10 1023.3 1023.1 0.0
28/11:30am 23.9 19.7 1.5 23 10.6 NE 13 17 7 9 1024.0 1023.8 0.0
28/11:00am 23.1 18.2 2.0 25 10.0 NNE 17 22 9 12 1024.3 1024.1 0.0
28/10:30am 22.1 16.6 1.7 26 9.6 N 20 30 11 16 1024.4 1024.2 0.0
28/10:00am 21.2 15.7 2.0 28 9.0 NNE 20 32 11 17 1024.4 1024.2 0.0
28/09:30am 20.4 15.7 0.8 27 8.9 NE 15 19 8 10 1024.2 1024.0 0.0
28/09:00am 18.9 15.0 1.4 31 7.9 ENE 11 13 6 7 1024.0 1023.8 0.0
28/08:30am 15.0 10.9 -0.3 35 6.5 ESE 11 13 6 7 1024.0 1023.8 0.0
28/08:00am 11.9 7.3 -0.9 41 5.2 ESE 13 15 7 8 1023.8 1023.6 0.0
28/07:30am 10.5 5.5 -1.2 44 4.6 ESE 15 17 8 9 1023.5 1023.3 0.0
28/07:00am 9.8 4.7 -1.6 45 4.4 ESE 15 17 8 9 1023.2 1023.0 0.0
28/06:30am 9.8 4.7 -1.6 45 4.5 ESE 15 17 8 9 1022.7 1022.5 0.0
28/06:00am 9.6 4.1 -2.0 44 4.5 ESE 17 19 9 10 1022.5 1022.3 0.0
28/05:30am 9.8 4.3 -2.2 43 4.6 ESE 17 20 9 11 1022.1 1021.9 0.0
28/05:00am 9.8 4.6 -3.1 40 4.8 ESE 15 17 8 9 1022.0 1021.8 0.0
28/04:30am 10.1 5.2 -3.2 39 5.0 SE 13 15 7 8 1022.0 1021.8 0.0
28/04:00am 10.4 6.0 -2.3 41 4.9 SE 11 11 6 6 1021.9 1021.7 0.0
28/03:30am 10.7 6.2 -3.0 38 5.2 SE 11 13 6 7 1022.0 1021.8 0.0
28/03:00am 10.7 6.5 -3.7 36 5.4 SE 9 11 5 6 1022.0 1021.8 0.0
28/02:30am 11.3 6.3 -4.0 34 5.7 SSE 13 15 7 8 1022.0 1021.8 0.0
28/02:00am 11.8 6.8 -3.9 33 5.9 SSE 13 15 7 8 1022.2 1022.0 0.0
28/01:30am 12.0 7.5 -3.0 35 5.8 SE 11 13 6 7 1022.1 1021.9 0.0
28/01:00am 10.3 6.0 -4.9 34 5.5 SE 9 11 5 6 1022.1 1021.9 0.0
28/12:30am 11.6 7.8 -4.1 33 5.9 S 7 11 4 6 1022.1 1021.9 0.0
28/12:00am 12.0 9.6 -3.4 34 5.9 CALM 0 4 0 2 1021.9 1021.7 0.0
 
Date/Time
EST
Temp
°C
App
Temp
°C
Dew
Point
°C
Rel
Hum
%
Delta-T
°C
Wind Press
QNH
hPa
Press
MSL
hPa
Rain since
9am
mm
Dir  Spd
km/h
Gust
km/h
Spd
kts
Gust
kts
27/11:30pm 12.6 8.1 -3.6 32 6.2 NNE 11 13 6 7 1021.9 1021.7 0.0
27/11:00pm 13.0 8.7 -4.6 29 6.6 ENE 9 13 5 7 1021.9 1021.7 0.0
27/10:30pm 13.1 8.8 -4.5 29 6.7 E 9 11 5 6 1022.0 1021.8 0.0
27/10:00pm 13.4 10.5 -4.2 29 6.7 ESE 2 6 1 3 1022.0 1021.8 0.0
27/09:30pm 15.7 12.2 -3.2 27 7.6 ESE 6 7 3 4 1022.0 1021.8 0.0
27/09:00pm 16.9 12.4 -3.2 25 8.1 ENE 11 15 6 8 1021.9 1021.7 0.0
27/08:30pm 16.6 11.6 -4.6 23 8.3 NE 13 17 7 9 1021.8 1021.6 0.0
27/08:00pm 18.5 13.2 -3.6 22 9.0 E 15 15 8 8 1021.4 1021.2 0.0
27/07:30pm 19.6 14.4 -2.7 22 9.4 E 15 15 8 8 1021.2 1021.0 0.0
27/07:00pm 18.8 13.5 -4.0 21 9.2 E 15 17 8 9 1020.9 1020.7 0.0
27/06:30pm 20.9 16.4 -3.6 19 10.3 ESE 11 13 6 7 1020.6 1020.4 0.0
27/06:00pm 24.0 19.5 -3.3 16 11.8 ESE 11 13 6 7 1020.3 1020.2 0.0
27/05:30pm 26.3 21.8 -3.3 14 13.1 E 11 15 6 8 1020.2 1020.1 0.0
27/05:00pm 27.4 21.2 -4.5 12 13.9 E 19 26 10 14 1020.0 1019.8 0.0
27/04:30pm 27.9 22.2 -4.1 12 14.1 E 17 24 9 13 1019.8 1019.6 0.0
27/04:00pm 28.2 22.1 -3.9 12 14.2 E 19 30 10 16 1019.7 1019.5 0.0
27/03:30pm 28.2 21.9 -3.9 12 14.2 E 20 33 11 18 1019.3 1019.1 0.0
27/03:00pm 28.2 21.9 -3.9 12 14.2 E 20 32 11 17 1019.8 1019.6 0.0
27/02:30pm 28.0 21.9 -2.0 14 13.7 E 20 32 11 17 1020.1 1020.0 0.0
27/02:00pm 27.7 20.7 -3.2 13 13.8 ENE 24 33 13 18 1020.4 1020.3 0.0
27/01:30pm 27.6 21.5 -2.3 14 13.6 E 20 32 11 17 1020.7 1020.5 0.0
27/01:10pm 27.9 20.3 -2.0 14 13.7 ENE 28 50 15 27 1020.8 1020.6 0.0
27/01:00pm 28.0 21.3 -1.0 15 13.5 ENE 24 37 13 20 1021.0 1020.8 0.0
27/12:30pm 26.9 19.5 -1.0 16 12.9 E 28 39 15 21 1021.7 1021.5 0.0
27/12:00pm 26.3 19.2 -1.5 16 12.6 E 26 39 14 21 1022.1 1021.9 0.0
27/11:30am 25.9 19.6 -1.0 17 12.3 ENE 22 32 12 17 1022.5 1022.3 0.0
27/11:00am 24.8 19.0 -0.4 19 11.6 NE 20 28 11 15 1023.0 1022.8 0.0
27/10:30am 23.2 17.8 -1.0 20 10.9 NE 17 26 9 14 1023.4 1023.2 0.0
27/10:00am 22.2 16.7 -1.8 20 10.5 ENE 17 26 9 14 1023.7 1023.5 0.0
27/09:30am 18.8 14.2 -1.1 26 8.6 ENE 13 17 7 9 1023.8 1023.6 0.0
27/09:00am 15.6 11.6 -1.9 30 7.2 E 9 11 5 6 1024.1 1023.9 0.0
27/08:30am 12.6 8.6 -2.4 35 5.9 SE 9 11 5 6 1023.8 1023.6 0.0
27/08:00am 10.3 6.6 -2.7 40 4.9 SE 7 11 4 6 1023.4 1023.2 0.0
27/07:30am 8.6 4.6 -2.6 45 4.2 SE 9 11 5 6 1022.9 1022.7 0.0
27/07:00am 7.3 3.2 -3.2 47 3.8 SE 9 9 5 5 1022.7 1022.5 0.0
27/06:30am 7.8 4.1 -2.8 47 3.9 ESE 7 9 4 5 1022.3 1022.1 0.0
27/06:00am 6.8 3.0 -4.0 46 3.8 ESE 7 7 4 4 1021.8 1021.6 0.0
27/05:30am 7.7 3.9 -3.5 45 4.1 ESE 7 7 4 4 1021.6 1021.4 0.0
27/05:00am 9.2 5.5 -3.0 42 4.6 ESE 7 9 4 5 1021.4 1021.2 0.0
27/04:30am 9.3 5.2 -3.3 41 4.7 E 9 11 5 6 1021.3 1021.1 0.0
27/04:00am 9.3 4.8 -3.3 41 4.7 ESE 11 11 6 6 1021.5 1021.3 0.0
27/03:30am 9.0 4.8 -3.5 41 4.6 ESE 9 11 5 6 1021.7 1021.5 0.0
27/03:00am 10.5 6.3 -3.6 37 5.3 ESE 9 15 5 8 1021.5 1021.3 0.0
27/02:30am 10.1 5.9 -3.6 38 5.1 SE 9 11 5 6 1021.4 1021.2 0.0
27/02:00am 11.0 6.8 -3.5 36 5.5 ESE 9 15 5 8 1021.2 1021.0 0.0
27/01:30am 11.5 6.9 -3.8 34 5.8 ESE 11 17 6 9 1021.7 1021.5 0.0
27/01:00am 12.3 7.4 -3.1 34 5.9 SE 13 13 7 7 1021.9 1021.7 0.0
27/12:30am 11.9 6.7 -3.1 35 5.8 SE 15 17 8 9 1021.8 1021.6 0.0
27/12:00am 12.3 7.8 -3.5 33 6.0 SE 11 13 6 7 1021.9 1021.7 0.0
 
Date/Time
EST
Temp
°C
App
Temp
°C
Dew
Point
°C
Rel
Hum
%
Delta-T
°C
Wind Press
QNH
hPa
Press
MSL
hPa
Rain since
9am
mm
Dir  Spd
km/h
Gust
km/h
Spd
kts
Gust
kts
26/11:30pm 12.8 8.4 -2.6 34 6.1 SE 11 13 6 7 1022.0 1021.8 0.0
26/11:00pm 14.4 9.7 -2.1 32 6.7 ESE 13 15 7 8 1022.1 1021.9 0.0
26/10:30pm 14.1 9.3 -2.8 31 6.7 SE 13 13 7 7 1022.1 1021.9 0.0
26/10:00pm 15.8 11.8 -2.2 29 7.4 SE 9 11 5 6 1022.0 1021.8 0.0
26/09:30pm 15.6 10.8 -2.8 28 7.4 SSE 13 15 7 8 1022.0 1021.8 0.0
26/09:00pm 16.7 11.9 -2.9 26 8.0 SSE 13 13 7 7 1021.9 1021.7 0.0
26/08:30pm 17.8 13.8 -2.5 25 8.4 SE 9 11 5 6 1021.6 1021.4 0.0
26/08:00pm 18.1 13.7 -2.2 25 8.5 ESE 11 11 6 6 1021.3 1021.1 0.0
26/07:30pm 19.7 14.9 -2.6 22 9.4 ESE 13 13 7 7 1021.1 1020.9 0.0
26/07:00pm 20.5 16.1 -2.5 21 9.8 ESE 11 13 6 7 1020.9 1020.7 0.0
26/06:30pm 20.6 15.7 -3.1 20 10.0 ESE 13 15 7 8 1020.4 1020.3 0.0
26/06:00pm 22.4 17.5 -3.1 18 10.9 E 13 15 7 8 1020.1 1020.0 0.0
26/05:30pm 25.0 19.7 -3.4 15 12.4 ESE 15 20 8 11 1019.9 1019.7 0.0
26/05:00pm 26.1 20.4 -3.5 14 13.0 ESE 17 26 9 14 1019.5 1019.3 0.0
26/04:30pm 26.6 21.5 -2.1 15 13.0 SE 15 24 8 13 1019.4 1019.2 0.0
26/04:00pm 26.8 20.9 -2.0 15 13.0 ENE 19 32 10 17 1019.5 1019.3 0.0
26/03:30pm 26.8 21.7 -2.0 15 13.1 E 15 26 8 14 1019.6 1019.4 0.0
26/03:00pm 26.7 20.2 -2.1 15 13.0 ESE 22 32 12 17 1019.7 1019.5 0.0
26/02:30pm 26.7 20.9 -1.2 16 12.8 E 19 35 10 19 1020.0 1019.8 0.0
26/02:00pm 26.9 22.3 -1.0 16 12.9 ESE 13 22 7 12 1020.3 1020.2 0.0
26/01:30pm 27.0 22.5 -0.1 17 12.8 E 13 26 7 14 1020.8 1020.6 0.0
26/01:00pm 26.0 20.4 -0.1 18 12.2 ENE 19 28 10 15 1021.2 1021.0 0.0
26/12:30pm 25.7 20.9 0.4 19 11.9 ENE 15 26 8 14 1022.0 1021.8 0.0
26/12:00pm 25.2 21.3 3.2 24 10.8 NE 13 28 7 15 1022.5 1022.3 0.0
26/11:30am 23.5 19.3 4.0 28 9.7 NE 15 20 8 11 1023.0 1022.8 0.0
26/11:00am 23.0 19.3 4.5 30 9.2 NE 13 24 7 13 1023.3 1023.1 0.0
26/10:30am 21.7 18.1 5.2 34 8.3 NNE 13 20 7 11 1023.6 1023.4 0.0
26/10:00am 20.6 16.6 5.0 36 7.7 NE 15 19 8 10 1023.7 1023.5 0.0
26/09:30am 20.0 16.0 4.9 37 7.4 NE 15 22 8 12 1023.7 1023.5 0.0
26/08:30am 14.3 8.9 -1.7 33 6.5 ESE 17 20 9 11 1023.4 1023.2 0.0
26/08:00am 11.0 5.8 -3.1 37 5.4 ESE 15 17 8 9 1023.0 1022.8 0.0
26/07:30am 9.1 3.8 -3.4 41 4.6 ESE 15 17 8 9 1022.8 1022.6 0.0
26/07:00am 8.5 2.8 -3.7 42 4.4 ESE 17 19 9 10 1022.6 1022.4 0.0
26/06:30am 8.5 2.7 -4.6 39 4.7 ESE 17 19 9 10 1022.2 1022.0 0.0
26/06:00am 9.2 3.1 -4.0 39 4.8 ESE 19 22 10 12 1021.9 1021.7 0.0
26/05:30am 9.2 3.4 -4.7 37 5.0 ESE 17 19 9 10 1021.6 1021.4 0.0
26/05:00am 9.5 4.9 -4.4 37 5.0 SE 11 15 6 8 1021.3 1021.1 0.0
26/04:30am 10.1 4.3 -4.3 36 5.3 SE 17 17 9 9 1021.3 1021.1 0.0
26/04:00am 10.2 4.8 -4.2 36 5.3 ESE 15 17 8 9 1021.2 1021.0 0.0
26/03:30am 10.0 4.7 -4.0 37 5.2 SE 15 17 8 9 1021.2 1021.0 0.0
26/03:00am 10.4 5.5 -3.6 37 5.2 SE 13 15 7 8 1021.1 1020.9 0.0
26/02:30am 11.0 5.7 -3.5 36 5.5 ESE 15 17 8 9 1021.1 1020.9 0.0
26/02:00am 11.8 6.1 -3.5 34 5.8 ESE 17 19 9 10 1021.1 1020.9 0.0
26/01:30am 12.0 6.4 -3.0 35 5.8 ESE 17 19 9 10 1021.2 1021.0 0.0
26/01:00am 12.0 6.3 -3.4 34 5.9 ESE 17 17 9 9 1021.1 1020.9 0.0
26/12:30am 13.1 7.9 -2.8 33 6.3 ESE 15 17 8 9 1021.2 1021.0 0.0
26/12:00am 13.6 8.9 -1.9 34 6.2 SE 13 17 7 9 1021.3 1021.1 0.0
 
Date/Time
EST
Temp
°C
App
Temp
°C
Dew
Point
°C
Rel
Hum
%
Delta-T
°C
Wind Press
QNH
hPa
Press
MSL
hPa
Rain since
9am
mm
Dir  Spd
km/h
Gust
km/h
Spd
kts
Gust
kts
25/11:30pm 12.3 7.4 -3.1 34 6.0 E 13 15 7 8 1021.4 1021.2 0.0
25/11:00pm 13.2 8.0 -3.1 32 6.4 SE 15 17 8 9 1021.3 1021.1 0.0
25/10:30pm 14.7 10.3 -2.2 31 6.9 SE 11 13 6 7 1021.1 1020.9 0.0
25/10:00pm 15.4 10.7 -2.1 30 7.1 SE 13 15 7 8 1021.0 1020.8 0.0
25/09:30pm 16.0 11.7 -2.0 29 7.4 SE 11 15 6 8 1021.0 1020.8 0.0
25/09:00pm 16.3 11.9 -2.2 28 7.6 SE 11 13 6 7 1021.0 1020.8 0.0
25/08:30pm 18.1 13.0 -2.2 25 8.5 ESE 15 17 8 9 1020.9 1020.7 0.0
25/08:00pm 18.5 13.8 -1.9 25 8.6 SE 13 13 7 7 1020.7 1020.5 0.0
25/07:30pm 18.8 14.4 -2.2 24 8.9 SE 11 13 6 7 1020.1 1020.0 0.0
25/07:00pm 20.1 15.8 -1.7 23 9.4 ESE 11 13 6 7 1019.9 1019.7 0.0
25/06:30pm 21.3 16.6 -1.9 21 10.1 ESE 13 15 7 8 1019.6 1019.4 0.0
25/06:00pm 23.5 18.7 -2.2 18 11.3 ESE 13 15 7 8 1019.2 1019.0 0.0
25/05:30pm 25.8 20.7 -1.9 16 12.5 E 15 24 8 13 1019.0 1018.8 0.0
25/05:00pm 26.6 21.2 -1.3 16 12.8 E 17 24 9 13 1018.8 1018.6 0.0
25/04:30pm 27.4 21.7 -0.6 16 13.1 ENE 19 28 10 15 1018.8 1018.6 0.0
25/04:00pm 27.1 21.4 -0.9 16 13.0 E 19 32 10 17 1018.8 1018.6 0.0
25/03:30pm 27.4 22.5 -0.6 16 13.1 E 15 26 8 14 1018.9 1018.7 0.0
25/03:00pm 27.1 21.9 0.0 17 12.8 E 17 30 9 16 1019.1 1018.9 0.0
25/02:30pm 27.1 22.4 0.8 18 12.6 E 15 26 8 14 1019.3 1019.1 0.0
25/02:00pm 26.9 22.1 2.7 21 11.9 E 17 28 9 15 1019.7 1019.5 0.0
25/01:30pm 26.8 21.7 3.3 22 11.7 ENE 19 30 10 16 1020.2 1020.1 0.0
25/01:00pm 26.8 21.7 4.0 23 11.5 E 20 32 11 17 1020.8 1020.6 0.0

Other Formats:

Comma delimited format used in spreadsheet applications
http://www.bom.gov.au/fwo/IDQ60801/IDQ60801.94346.axf

JavaScript Object Notation format (JSON) in row-major order
http://www.bom.gov.au/fwo/IDQ60801/IDQ60801.94346.json